Weather at Perneri Airfield

Public forecast

Using degrees Celsius for public forecast. Weather courtesy of forecast.io.

Closest aviation weather report (METAR) to Perneri Airfield

Closest report is Tanagra Air Base, 14.6 nm (27.1 km) E.

2024/07/13 20:50 (retrieved 1 hour ago)

LGTG 132050Z 28005KT CAVOK 26/11 Q1011 BLU

Closest aviation forecast (TAF) to Perneri Airfield

Closest forecast is Elefsis Air Base, 23.4 nm (43.4 km) SE.

2024/07/13 18:13 (retrieved 4 hours ago)

TAF LGEL 131700Z 1318/1418 36010KT CAVOK